Time;durP1;ratioP1;P1;durP2;ratioP2;P2;SDS_P1;SDS_P2;PMS_P1;PMS_P2;Temp;Humidity;BMP_temperature;BMP_pressure;BME280_temperature;BME280_humidity;BME280_pressure;Samples;Min_cycle;Max_cycle;Signal;HPM_P1;HPM_P2
2022/07/10 00:00:09;;;;;;;6.97;6.47;;;17.00;99.90;;;;;;6196080;23;20907;-81
2022/07/10 00:02:35;;;;;;;7.43;6.53;;;17.00;99.90;;;;;;6195174;23;20419;-81
2022/07/10 00:05:04;;;;;;;6.00;5.60;;;17.00;99.90;;;;;;6195500;23;20432;-81
2022/07/10 00:07:31;;;;;;;5.90;5.50;;;17.10;99.90;;;;;;6194904;23;20445;-81
2022/07/10 00:09:57;;;;;;;7.17;4.90;;;17.10;99.90;;;;;;6195177;23;20417;-81
2022/07/10 00:12:24;;;;;;;5.30;4.90;;;17.10;99.90;;;;;;6195814;23;20395;-82
2022/07/10 00:14:51;;;;;;;5.60;5.00;;;17.20;99.90;;;;;;6195628;23;21216;-81
2022/07/10 00:17:18;;;;;;;5.70;5.30;;;17.30;99.90;;;;;;6195220;23;20405;-81
2022/07/10 00:19:45;;;;;;;5.20;4.80;;;17.30;99.90;;;;;;6195910;23;20788;-81
2022/07/10 00:22:13;;;;;;;4.87;4.47;;;17.20;99.90;;;;;;6195957;23;20763;-81
2022/07/10 00:24:39;;;;;;;6.30;5.80;;;17.20;99.90;;;;;;6195873;23;20456;-81
2022/07/10 00:27:06;;;;;;;5.13;4.83;;;17.20;99.90;;;;;;6195087;23;20454;-81
2022/07/10 00:29:33;;;;;;;5.23;4.83;;;17.20;99.90;;;;;;6195473;23;20413;-81
2022/07/10 00:32:00;;;;;;;6.50;5.80;;;17.10;99.90;;;;;;6195317;23;20411;-80
2022/07/10 00:34:26;;;;;;;5.70;5.30;;;17.20;99.90;;;;;;6195793;23;20432;-81
2022/07/10 00:36:53;;;;;;;5.50;5.10;;;17.20;99.90;;;;;;6195047;23;20405;-81
2022/07/10 00:39:21;;;;;;;5.23;4.93;;;17.20;99.90;;;;;;6195407;23;20423;-81
2022/07/10 00:41:48;;;;;;;5.00;4.60;;;17.20;99.90;;;;;;6195044;23;20599;-81
2022/07/10 00:44:15;;;;;;;5.73;5.33;;;17.20;99.90;;;;;;6195098;23;20439;-81
2022/07/10 00:46:42;;;;;;;5.80;5.40;;;17.20;99.90;;;;;;6194395;23;20455;-81
2022/07/10 00:49:08;;;;;;;5.90;5.40;;;17.20;99.90;;;;;;6194406;23;20413;-81
2022/07/10 00:51:36;;;;;;;5.43;5.03;;;17.20;99.90;;;;;;6194881;23;20723;-81
2022/07/10 00:54:03;;;;;;;5.20;4.80;;;17.20;99.90;;;;;;6195233;23;20464;-81
2022/07/10 00:56:31;;;;;;;5.43;4.80;;;17.20;99.90;;;;;;6194316;23;20413;-81
2022/07/10 00:58:58;;;;;;;5.40;4.90;;;17.30;99.90;;;;;;6194895;23;20405;-81
2022/07/10 01:01:25;;;;;;;6.17;5.77;;;17.20;99.90;;;;;;6195287;23;20409;-81
2022/07/10 01:03:52;;;;;;;5.77;5.37;;;17.20;99.90;;;;;;6195043;23;20448;-81
2022/07/10 01:06:19;;;;;;;6.43;5.93;;;17.20;99.90;;;;;;6195239;23;20517;-81
2022/07/10 01:08:46;;;;;;;5.93;5.53;;;17.20;99.90;;;;;;6195268;23;20418;-81
2022/07/10 01:11:14;;;;;;;5.40;5.00;;;17.10;99.90;;;;;;6193219;23;20419;-81
2022/07/10 01:13:43;;;;;;;5.80;5.40;;;17.10;99.90;;;;;;6194595;23;20433;-81
2022/07/10 01:16:10;;;;;;;6.30;5.70;;;17.10;99.90;;;;;;6194683;23;20408;-81
2022/07/10 01:18:36;;;;;;;7.10;5.73;;;17.00;99.90;;;;;;6194503;23;20416;-81
2022/07/10 01:21:05;;;;;;;4.50;4.20;;;17.00;99.90;;;;;;6194735;23;20408;-81
2022/07/10 01:23:31;;;;;;;5.83;5.40;;;17.00;99.90;;;;;;6195104;23;20429;-81
2022/07/10 01:25:58;;;;;;;6.20;5.77;;;16.90;99.90;;;;;;6194023;23;20720;-81
2022/07/10 01:28:27;;;;;;;5.53;5.13;;;16.80;99.90;;;;;;6194787;23;20479;-81
2022/07/10 01:30:56;;;;;;;5.67;5.23;;;16.80;99.90;;;;;;6194933;23;20908;-81
2022/07/10 01:33:23;;;;;;;6.77;6.00;;;16.70;99.90;;;;;;6194208;23;20432;-81
2022/07/10 01:35:49;;;;;;;6.20;5.70;;;16.70;99.90;;;;;;6193672;23;20936;-81
2022/07/10 01:38:17;;;;;;;6.80;6.13;;;16.70;99.90;;;;;;6194000;23;20447;-81
2022/07/10 01:40:44;;;;;;;6.33;5.73;;;16.60;99.90;;;;;;6194361;23;20891;-81
2022/07/10 01:43:11;;;;;;;6.00;5.60;;;16.60;99.90;;;;;;6194978;23;20438;-81
2022/07/10 01:45:38;;;;;;;6.43;5.93;;;16.60;99.90;;;;;;6194460;23;20412;-81
2022/07/10 01:48:05;;;;;;;7.13;6.60;;;16.50;99.90;;;;;;6194993;23;20468;-81
2022/07/10 01:50:32;;;;;;;5.40;5.00;;;16.40;99.90;;;;;;6194941;23;20502;-82
2022/07/10 01:52:58;;;;;;;6.70;6.20;;;16.30;99.90;;;;;;6194841;23;20437;-81
2022/07/10 01:55:27;;;;;;;7.13;6.73;;;16.20;99.90;;;;;;6194744;23;20412;-82
2022/07/10 01:57:53;;;;;;;6.60;6.13;;;16.20;99.90;;;;;;6194149;23;20403;-81
2022/07/10 02:00:20;;;;;;;7.37;6.87;;;16.10;99.90;;;;;;6194788;23;20418;-81
2022/07/10 02:04:40;;;;;;;7.83;7.23;;;16.10;99.90;;;;;;6196059;23;20418;-81
2022/07/10 02:05:32;;;;;;;7.73;7.10;;;16.10;99.90;;;;;;6195751;23;20466;-81
2022/07/10 02:07:59;;;;;;;7.90;7.20;;;16.10;99.90;;;;;;6195809;23;20440;-81
2022/07/10 02:10:28;;;;;;;6.83;6.43;;;16.10;99.90;;;;;;6195551;23;20232;-81
2022/07/10 02:12:55;;;;;;;7.23;6.73;;;16.00;99.90;;;;;;6197083;23;20448;-81
2022/07/10 02:15:22;;;;;;;7.10;6.50;;;15.90;99.90;;;;;;6195829;23;20443;-81
2022/07/10 02:17:49;;;;;;;7.80;7.20;;;15.90;99.90;;;;;;6194486;23;20408;-81
2022/07/10 02:20:16;;;;;;;8.33;7.73;;;15.90;99.90;;;;;;6194286;23;20410;-80
2022/07/10 02:22:43;;;;;;;7.40;6.80;;;15.90;99.90;;;;;;6194801;23;20495;-80
2022/07/10 02:25:10;;;;;;;9.27;8.47;;;15.80;99.90;;;;;;6194691;23;20436;-80
2022/07/10 02:27:38;;;;;;;11.03;10.07;;;15.80;99.90;;;;;;6193739;23;20447;-79
2022/07/10 02:30:07;;;;;;;12.50;11.40;;;15.70;99.90;;;;;;6194706;23;20422;-80
2022/07/10 02:32:33;;;;;;;12.77;11.63;;;15.70;99.90;;;;;;6194272;23;20920;-79
2022/07/10 02:35:00;;;;;;;14.27;13.00;;;15.70;99.90;;;;;;6195369;23;20427;-80
2022/07/10 02:37:27;;;;;;;16.90;15.47;;;15.70;99.90;;;;;;6194591;23;20414;-80
2022/07/10 02:39:53;;;;;;;16.43;14.87;;;15.60;99.90;;;;;;6194313;23;20720;-80
2022/07/10 02:42:20;;;;;;;15.67;13.97;;;15.70;99.90;;;;;;6194654;23;20419;-80
2022/07/10 02:44:48;;;;;;;17.23;15.73;;;15.70;99.90;;;;;;6194510;23;20430;-79
2022/07/10 02:47:15;;;;;;;16.57;15.00;;;15.70;99.90;;;;;;6193781;23;20469;-80
2022/07/10 02:49:42;;;;;;;17.00;15.50;;;15.70;99.90;;;;;;6194593;23;20447;-80
2022/07/10 02:52:08;;;;;;;18.10;16.27;;;15.80;99.90;;;;;;6194267;23;20412;-80
2022/07/10 02:54:35;;;;;;;18.23;16.63;;;15.80;99.90;;;;;;6193990;23;20503;-80
2022/07/10 02:57:02;;;;;;;17.63;16.03;;;15.90;99.90;;;;;;6193818;23;20507;-79
2022/07/10 02:59:29;;;;;;;17.93;16.43;;;15.80;99.90;;;;;;6194157;23;20415;-80
2022/07/10 03:01:57;;;;;;;19.07;17.27;;;15.90;99.90;;;;;;6195368;23;20411;-80
2022/07/10 03:04:24;;;;;;;20.43;18.60;;;15.90;99.90;;;;;;6195933;23;20794;-80
2022/07/10 03:06:51;;;;;;;18.43;16.83;;;15.80;99.90;;;;;;6196200;23;20441;-80
2022/07/10 03:09:17;;;;;;;19.67;17.80;;;15.80;99.90;;;;;;6195524;23;20422;-79
2022/07/10 03:11:44;;;;;;;18.40;16.80;;;15.80;99.90;;;;;;6196213;23;20423;-79
2022/07/10 03:14:11;;;;;;;19.30;17.60;;;15.80;99.90;;;;;;6195483;23;20445;-80
2022/07/10 03:16:38;;;;;;;21.80;19.60;;;15.80;99.90;;;;;;6195433;23;20850;-80
2022/07/10 03:19:06;;;;;;;20.27;18.40;;;15.80;99.90;;;;;;6195984;23;20411;-79
2022/07/10 03:21:32;;;;;;;19.77;17.93;;;15.80;99.90;;;;;;6195270;23;20415;-80
2022/07/10 03:23:59;;;;;;;23.63;18.03;;;15.80;99.90;;;;;;6195808;23;20441;-83
2022/07/10 03:26:26;;;;;;;19.30;17.50;;;15.80;99.90;;;;;;6195001;23;20415;-80
2022/07/10 03:28:53;;;;;;;21.17;19.10;;;15.70;99.90;;;;;;6195982;23;20434;-80
2022/07/10 03:31:19;;;;;;;20.43;18.53;;;15.80;99.90;;;;;;6195300;23;20411;-80
2022/07/10 03:33:46;;;;;;;20.27;18.47;;;15.70;99.90;;;;;;6195739;23;20428;-80
2022/07/10 03:36:14;;;;;;;19.37;17.33;;;15.70;99.90;;;;;;6196833;23;20408;-79
2022/07/10 03:38:41;;;;;;;18.23;16.43;;;15.80;99.90;;;;;;6196388;23;20412;-80
2022/07/10 03:41:08;;;;;;;17.57;15.80;;;15.80;99.90;;;;;;6195004;23;20417;-80
2022/07/10 03:43:35;;;;;;;18.00;16.30;;;15.80;99.90;;;;;;6195933;23;20432;-80
2022/07/10 03:46:01;;;;;;;16.97;15.37;;;15.80;99.90;;;;;;6195208;23;20466;-79
2022/07/10 03:48:28;;;;;;;16.63;15.07;;;15.80;99.90;;;;;;6196471;23;20477;-79
2022/07/10 03:50:55;;;;;;;15.67;14.37;;;15.70;99.90;;;;;;6195934;23;20406;-80
2022/07/10 03:53:23;;;;;;;15.17;13.77;;;15.80;99.90;;;;;;6195295;23;20463;-80
2022/07/10 03:55:50;;;;;;;16.03;14.60;;;15.80;99.90;;;;;;6195684;23;20414;-81
2022/07/10 03:58:16;;;;;;;15.47;13.97;;;15.80;99.90;;;;;;6196282;23;20784;-80
2022/07/10 04:00:43;;;;;;;17.00;15.50;;;15.80;99.90;;;;;;6195582;23;20467;-80
2022/07/10 04:03:10;;;;;;;16.57;14.43;;;15.80;99.90;;;;;;6195786;23;20967;-80
2022/07/10 04:05:36;;;;;;;16.37;14.63;;;15.70;99.90;;;;;;6195870;23;20407;-79
2022/07/10 04:08:04;;;;;;;15.43;14.03;;;15.70;99.90;;;;;;6196006;23;20442;-80
2022/07/10 04:10:32;;;;;;;15.60;14.23;;;15.70;99.90;;;;;;6196237;23;21011;-80
2022/07/10 04:13:00;;;;;;;16.73;15.10;;;15.60;99.90;;;;;;6195923;23;20502;-80
2022/07/10 04:15:27;;;;;;;15.40;14.20;;;15.50;99.90;;;;;;6196357;23;20410;-80
2022/07/10 04:17:54;;;;;;;15.50;14.20;;;15.50;99.90;;;;;;6195911;23;20417;-80
2022/07/10 04:20:21;;;;;;;16.07;14.67;;;15.40;99.90;;;;;;6196216;23;20742;-80
2022/07/10 04:22:49;;;;;;;17.37;15.77;;;15.40;99.90;;;;;;6195257;23;20418;-80
2022/07/10 04:25:15;;;;;;;17.20;15.63;;;15.40;99.90;;;;;;6196189;23;20442;-79
2022/07/10 04:27:43;;;;;;;16.70;15.17;;;15.40;99.90;;;;;;6195675;23;20766;-80
2022/07/10 04:30:11;;;;;;;15.07;13.77;;;15.30;99.90;;;;;;6196431;23;20413;-80
2022/07/10 04:32:38;;;;;;;16.53;14.83;;;15.30;99.90;;;;;;6195523;23;20744;-80
2022/07/10 04:35:06;;;;;;;16.10;14.47;;;15.30;99.90;;;;;;6194159;23;20945;-80
2022/07/10 04:37:34;;;;;;;15.70;14.30;;;15.30;99.90;;;;;;6194292;23;20403;-80
2022/07/10 04:40:01;;;;;;;15.47;13.87;;;15.30;99.90;;;;;;6194990;23;20415;-80
2022/07/10 04:42:27;;;;;;;14.67;13.40;;;15.30;99.90;;;;;;6194068;23;20415;-80
2022/07/10 04:44:56;;;;;;;14.77;13.43;;;15.30;99.90;;;;;;6193924;23;20435;-80
2022/07/10 04:47:22;;;;;;;16.07;14.67;;;15.30;99.90;;;;;;6192966;23;20441;-81
2022/07/10 04:49:49;;;;;;;14.37;13.07;;;15.30;99.90;;;;;;6190540;23;20968;-81
2022/07/10 04:52:16;;;;;;;14.03;12.73;;;15.30;99.90;;;;;;6191835;23;20411;-81
2022/07/10 04:54:42;;;;;;;13.10;11.90;;;15.40;99.90;;;;;;6191188;23;20430;-80
2022/07/10 04:57:09;;;;;;;14.80;13.50;;;15.40;99.90;;;;;;6190360;23;20411;-81
2022/07/10 04:59:36;;;;;;;13.00;11.90;;;15.40;99.90;;;;;;6190643;23;20402;-81
2022/07/10 05:02:05;;;;;;;12.00;10.90;;;15.40;99.90;;;;;;6190247;23;20418;-81
2022/07/10 05:04:31;;;;;;;11.10;10.20;;;15.40;99.90;;;;;;6190192;23;20431;-81
2022/07/10 05:06:58;;;;;;;11.77;10.77;;;15.40;99.90;;;;;;6189862;23;20412;-81
2022/07/10 05:09:25;;;;;;;11.23;10.30;;;15.50;99.90;;;;;;6190414;23;20415;-81
2022/07/10 05:11:51;;;;;;;11.80;9.73;;;15.40;99.90;;;;;;6189934;23;20477;-81
2022/07/10 05:14:18;;;;;;;10.53;9.63;;;15.50;99.90;;;;;;6190675;23;20743;-81
2022/07/10 05:16:45;;;;;;;9.50;8.80;;;15.50;99.90;;;;;;6189651;23;20499;-80
2022/07/10 05:19:13;;;;;;;11.00;9.03;;;15.50;99.90;;;;;;6190079;23;20407;-81
2022/07/10 05:21:39;;;;;;;10.80;9.80;;;15.50;99.90;;;;;;6193992;23;20410;-81
2022/07/10 05:24:07;;;;;;;9.77;8.97;;;15.40;99.90;;;;;;6195458;23;20439;-81
2022/07/10 05:26:33;;;;;;;9.23;8.43;;;15.50;99.90;;;;;;6194493;23;20412;-81
2022/07/10 05:29:00;;;;;;;9.17;8.47;;;15.40;99.90;;;;;;6195305;23;20445;-81
2022/07/10 05:31:27;;;;;;;8.93;8.10;;;15.50;99.90;;;;;;6194802;23;20406;-81
2022/07/10 05:33:53;;;;;;;8.30;7.60;;;15.50;99.90;;;;;;6193778;23;20419;-81
2022/07/10 05:36:22;;;;;;;8.00;7.40;;;15.40;99.90;;;;;;6194715;23;20406;-81
2022/07/10 05:38:48;;;;;;;8.30;7.60;;;15.50;99.90;;;;;;6194228;23;20482;-80
2022/07/10 05:41:15;;;;;;;8.03;7.43;;;15.60;99.90;;;;;;6194340;23;20740;-80
2022/07/10 05:43:42;;;;;;;7.73;7.03;;;15.60;99.90;;;;;;6193742;23;20430;-80
2022/07/10 05:46:09;;;;;;;7.57;7.07;;;15.60;99.90;;;;;;6193503;23;20724;-80
2022/07/10 05:48:35;;;;;;;6.37;5.87;;;15.70;99.90;;;;;;6193246;23;20715;-80
2022/07/10 05:51:02;;;;;;;6.57;5.93;;;15.70;99.90;;;;;;6194260;23;20441;-80
2022/07/10 05:53:30;;;;;;;8.13;7.43;;;15.70;99.90;;;;;;6193915;23;20426;-80
2022/07/10 05:56:01;;;;;;;5.70;5.30;;;15.80;99.90;;;;;;6192552;23;20416;-80
2022/07/10 05:58:27;;;;;;;6.17;5.10;;;15.70;99.90;;;;;;6194145;23;20391;-80
2022/07/10 06:00:54;;;;;;;7.00;6.40;;;15.70;99.90;;;;;;6195419;23;20406;-80
2022/07/10 06:03:21;;;;;;;5.70;4.07;;;15.60;99.90;;;;;;6195563;23;20431;-80
2022/07/10 06:05:48;;;;;;;5.60;4.33;;;15.60;99.90;;;;;;6195036;23;20433;-80
2022/07/10 06:08:14;;;;;;;4.73;4.30;;;15.60;99.90;;;;;;6195078;23;20440;-80
2022/07/10 06:10:43;;;;;;;5.47;5.17;;;15.50;99.90;;;;;;6194657;23;20449;-80
2022/07/10 06:13:10;;;;;;;3.43;3.17;;;15.60;99.90;;;;;;6194736;23;20436;-80
2022/07/10 06:15:37;;;;;;;4.40;3.87;;;15.50;99.90;;;;;;6195439;23;20417;-81
2022/07/10 06:18:04;;;;;;;5.23;4.37;;;15.70;99.90;;;;;;6195628;23;20408;-80
2022/07/10 06:20:31;;;;;;;3.90;3.60;;;15.90;99.90;;;;;;6196078;23;20745;-81
2022/07/10 06:22:58;;;;;;;3.20;2.97;;;16.10;99.90;;;;;;6194939;23;20422;-80
2022/07/10 06:25:25;;;;;;;3.63;3.40;;;16.10;99.90;;;;;;6195382;23;20411;-81
2022/07/10 06:27:53;;;;;;;4.90;3.53;;;16.20;99.90;;;;;;6195487;23;20447;-81
2022/07/10 06:30:19;;;;;;;4.17;3.87;;;16.40;99.90;;;;;;6195581;23;20416;-81
2022/07/10 06:32:46;;;;;;;4.73;4.33;;;16.40;99.90;;;;;;6195523;23;20415;-81
2022/07/10 06:35:13;;;;;;;3.27;3.07;;;16.50;99.90;;;;;;6196167;23;20431;-80
2022/07/10 06:37:39;;;;;;;4.00;3.70;;;16.40;99.90;;;;;;6195292;23;20414;-81
2022/07/10 06:40:07;;;;;;;4.43;4.03;;;16.30;99.90;;;;;;6198026;23;20434;-80
2022/07/10 06:42:34;;;;;;;4.37;4.07;;;16.30;99.90;;;;;;6196244;23;20412;-81
2022/07/10 06:45:02;;;;;;;3.80;3.60;;;16.30;99.90;;;;;;6195451;23;20436;-81
2022/07/10 06:50:14;;;;;;;3.20;3.00;;;16.50;99.90;;;;;;6196095;23;20456;-81
2022/07/10 06:52:40;;;;;;;6.17;3.50;;;16.50;99.90;;;;;;6195930;23;20408;-82
2022/07/10 06:55:08;;;;;;;3.47;3.27;;;16.50;99.90;;;;;;6196257;23;20462;-81
2022/07/10 06:57:35;;;;;;;4.07;3.50;;;16.30;99.90;;;;;;6195472;23;20406;-81
2022/07/10 07:00:04;;;;;;;3.83;3.50;;;16.40;99.90;;;;;;6196075;23;20907;-81
2022/07/10 07:02:30;;;;;;;4.50;4.20;;;16.40;99.90;;;;;;6195788;23;20408;-81
2022/07/10 07:04:57;;;;;;;4.37;4.07;;;16.30;99.90;;;;;;6195836;23;20430;-81
2022/07/10 07:07:24;;;;;;;4.50;4.10;;;16.10;99.90;;;;;;6195106;23;20412;-81
2022/07/10 07:09:51;;;;;;;4.93;3.53;;;16.10;99.90;;;;;;6195929;23;20447;-81
2022/07/10 07:12:18;;;;;;;4.73;4.33;;;15.90;99.90;;;;;;6195675;23;20465;-81
2022/07/10 07:14:45;;;;;;;5.07;4.77;;;15.90;99.90;;;;;;6195672;23;20435;-81
2022/07/10 07:17:14;;;;;;;4.03;3.60;;;16.10;99.90;;;;;;6195730;23;20488;-81
2022/07/10 07:25:12;;;;;;;3.47;3.17;;;16.60;99.90;;;;;;6196207;23;20415;-81
2022/07/10 07:27:39;;;;;;;3.00;2.80;;;16.80;99.90;;;;;;6194942;23;20418;-81
2022/07/10 07:30:07;;;;;;;2.97;2.67;;;16.80;99.90;;;;;;6195923;23;20416;-81
2022/07/10 07:32:36;;;;;;;3.63;2.80;;;16.80;99.90;;;;;;6196623;23;20415;-81
2022/07/10 07:35:02;;;;;;;3.87;3.27;;;16.80;99.90;;;;;;6195094;23;20437;-81
2022/07/10 07:37:37;;;;;;;3.97;3.60;;;16.60;99.90;;;;;;6196194;23;20417;-81
2022/07/10 07:40:04;;;;;;;3.97;2.97;;;16.60;99.90;;;;;;6195137;23;20411;-81
2022/07/10 07:42:31;;;;;;;4.50;3.30;;;16.40;99.90;;;;;;6195296;23;20407;-81
2022/07/10 07:44:58;;;;;;;3.70;2.50;;;16.40;99.90;;;;;;6195504;23;20435;-81
2022/07/10 07:47:25;;;;;;;4.13;3.23;;;16.40;99.90;;;;;;6196006;23;20751;-81
2022/07/10 07:49:53;;;;;;;3.20;2.90;;;16.50;99.90;;;;;;6195306;23;20452;-81
2022/07/10 07:52:19;;;;;;;3.40;3.20;;;16.60;99.90;;;;;;6195158;23;20413;-81
2022/07/10 07:54:46;;;;;;;3.17;2.97;;;16.60;99.90;;;;;;6195621;23;20435;-81
2022/07/10 07:57:13;;;;;;;2.50;2.33;;;16.50;99.90;;;;;;6194261;23;20405;-81
2022/07/10 07:59:40;;;;;;;3.00;2.50;;;16.60;99.90;;;;;;6195475;23;20439;-81
2022/07/10 08:02:07;;;;;;;3.13;2.10;;;16.80;99.90;;;;;;6194999;23;20793;-79
2022/07/10 08:04:34;;;;;;;2.30;2.20;;;17.00;99.90;;;;;;6195250;23;20731;-80
2022/07/10 08:07:02;;;;;;;2.73;2.40;;;17.20;99.90;;;;;;6193949;23;20418;-80
2022/07/10 08:09:29;;;;;;;2.97;2.40;;;17.60;99.90;;;;;;6195634;23;20444;-80
2022/07/10 08:11:55;;;;;;;2.70;2.20;;;17.60;99.90;;;;;;6194759;23;20420;-79
2022/07/10 08:14:22;;;;;;;2.63;1.90;;;17.60;99.90;;;;;;6195128;23;20442;-81
2022/07/10 08:16:50;;;;;;;2.23;2.13;;;17.50;99.90;;;;;;6194340;23;20911;-81
2022/07/10 08:19:17;;;;;;;2.23;2.10;;;17.40;99.90;;;;;;6194937;23;20503;-80
2022/07/10 08:21:44;;;;;;;1.97;1.87;;;17.50;99.90;;;;;;6195720;23;20432;-80
2022/07/10 08:24:12;;;;;;;2.77;2.10;;;17.50;99.90;;;;;;6198216;23;20443;-81
2022/07/10 08:26:39;;;;;;;3.43;2.47;;;17.80;99.30;;;;;;6196816;23;20413;-82
2022/07/10 08:29:05;;;;;;;4.03;2.60;;;17.80;98.30;;;;;;6196991;23;20970;-80
2022/07/10 08:31:33;;;;;;;2.20;2.10;;;17.60;98.70;;;;;;6197289;23;20416;-81
2022/07/10 08:33:59;;;;;;;2.07;1.97;;;17.40;99.60;;;;;;6196937;23;20437;-81
2022/07/10 08:36:26;;;;;;;3.00;2.40;;;17.30;98.90;;;;;;6197116;23;20912;-81
2022/07/10 08:38:54;;;;;;;2.70;2.20;;;17.20;98.60;;;;;;6197222;23;20532;-85
2022/07/10 08:41:25;;;;;;;2.47;2.27;;;17.20;98.80;;;;;;6193451;23;20417;-79
2022/07/10 08:43:52;;;;;;;2.70;2.50;;;17.40;98.40;;;;;;6193150;23;20967;-80
2022/07/10 08:46:19;;;;;;;5.40;2.33;;;17.60;98.80;;;;;;6193215;23;20405;-80
2022/07/10 08:48:48;;;;;;;2.37;2.20;;;17.60;99.10;;;;;;6192122;23;20441;-81
2022/07/10 08:51:24;;;;;;;3.50;2.30;;;17.60;99.60;;;;;;6195328;23;20437;-82
2022/07/10 08:53:52;;;;;;;3.50;2.97;;;17.80;98.90;;;;;;6196569;23;20424;-82
2022/07/10 08:56:19;;;;;;;2.70;2.00;;;17.90;98.50;;;;;;6195866;23;20417;-81
2022/07/10 08:58:48;;;;;;;2.30;2.10;;;17.90;99.20;;;;;;6196288;23;20408;-82
2022/07/10 09:01:15;;;;;;;3.30;2.40;;;18.10;99.20;;;;;;6195904;23;20420;-81
2022/07/10 09:03:42;;;;;;;2.67;2.47;;;18.10;97.40;;;;;;6195573;23;20436;-82
2022/07/10 09:06:08;;;;;;;3.20;3.00;;;18.10;97.30;;;;;;6195514;23;20413;-81
2022/07/10 09:08:37;;;;;;;5.10;4.73;;;17.90;97.20;;;;;;6194321;23;20452;-81
2022/07/10 09:11:14;;;;;;;3.90;2.70;;;17.90;97.80;;;;;;6194999;23;20452;-82
2022/07/10 09:13:51;;;;;;;3.10;2.40;;;17.90;98.00;;;;;;6195144;23;20437;-81
2022/07/10 09:16:23;;;;;;;3.00;2.80;;;18.10;97.40;;;;;;6188000;23;20390;-81
2022/07/10 09:18:49;;;;;;;2.40;2.30;;;18.10;96.00;;;;;;6188361;23;20412;-82
2022/07/10 09:21:16;;;;;;;2.77;2.57;;;18.30;96.30;;;;;;6187829;23;20424;-82
2022/07/10 09:23:43;;;;;;;2.40;2.20;;;18.50;96.90;;;;;;6188263;23;20440;-81
2022/07/10 09:26:10;;;;;;;2.13;1.93;;;18.40;95.90;;;;;;6186780;23;20419;-82
2022/07/10 09:28:36;;;;;;;3.90;2.40;;;18.10;96.10;;;;;;6187117;23;20455;-82
2022/07/10 09:31:05;;;;;;;3.00;2.37;;;18.10;96.50;;;;;;6186240;23;20417;-82
2022/07/10 09:33:34;;;;;;;2.83;2.63;;;18.10;96.80;;;;;;6186152;23;20429;-81
2022/07/10 09:36:06;;;;;;;3.33;2.70;;;18.20;96.30;;;;;;6186764;23;20476;-79
2022/07/10 09:38:52;;;;;;;3.17;2.90;;;18.40;96.80;;;;;;6186554;23;20393;-82
2022/07/10 09:41:21;;;;;;;5.63;3.07;;;18.50;96.50;;;;;;6187332;23;20446;-82
2022/07/10 09:43:48;;;;;;;2.93;2.00;;;18.50;95.80;;;;;;6186550;23;20465;-80
2022/07/10 09:46:18;;;;;;;2.53;2.10;;;18.70;95.20;;;;;;6185882;23;20405;-82
2022/07/10 09:48:45;;;;;;;3.10;2.80;;;18.60;94.90;;;;;;6192233;23;20433;-82
2022/07/10 09:51:12;;;;;;;2.50;2.40;;;18.50;95.30;;;;;;6193554;23;20491;-81
2022/07/10 09:53:40;;;;;;;3.73;2.57;;;18.60;95.50;;;;;;6194194;23;20433;-81
2022/07/10 09:56:09;;;;;;;2.53;2.30;;;18.70;94.70;;;;;;6193510;23;20463;-80
2022/07/10 09:58:36;;;;;;;2.57;2.37;;;18.80;94.10;;;;;;6193472;23;20526;-81
2022/07/10 10:01:04;;;;;;;3.80;2.13;;;18.70;93.80;;;;;;6193669;23;20409;-80
2022/07/10 10:03:35;;;;;;;4.30;2.40;;;18.40;94.20;;;;;;6194547;23;20778;-81
2022/07/10 10:06:11;;;;;;;1.67;1.57;;;18.50;95.00;;;;;;6193562;23;20455;-82
2022/07/10 10:08:47;;;;;;;4.03;2.50;;;18.50;94.50;;;;;;6193850;23;20512;-80
2022/07/10 10:11:17;;;;;;;2.33;2.23;;;18.30;94.30;;;;;;6192588;23;20417;-80
2022/07/10 10:13:44;;;;;;;2.20;2.00;;;18.20;94.40;;;;;;6195714;23;20489;-80
2022/07/10 10:16:12;;;;;;;4.20;2.17;;;18.30;95.00;;;;;;6194359;23;20480;-80
2022/07/10 10:20:36;;;;;;;3.33;2.50;;;18.70;95.70;;;;;;6195973;23;20485;-80
2022/07/10 10:21:27;;;;;;;1.90;1.80;;;19.10;93.00;;;;;;6195043;23;20410;-79
2022/07/10 10:23:55;;;;;;;2.60;2.40;;;19.30;93.80;;;;;;6194547;23;20828;-80
2022/07/10 10:26:24;;;;;;;4.40;2.33;;;19.30;93.10;;;;;;6194433;23;20944;-80
2022/07/10 10:28:52;;;;;;;2.10;1.90;;;19.10;93.00;;;;;;6194509;23;20452;-80
2022/07/10 10:31:20;;;;;;;2.60;2.50;;;19.00;92.80;;;;;;6193956;23;20419;-82
2022/07/10 10:33:51;;;;;;;3.30;3.10;;;19.00;93.10;;;;;;6193332;23;20422;-81
2022/07/10 10:36:46;;;;;;;2.10;2.00;;;19.10;92.60;;;;;;6194428;23;20456;-81
2022/07/10 10:39:14;;;;;;;2.40;2.20;;;19.20;93.10;;;;;;6179880;23;20409;-80
2022/07/10 10:41:42;;;;;;;2.60;2.40;;;19.50;92.20;;;;;;6195599;23;20410;-82
2022/07/10 10:44:36;;;;;;;2.10;2.00;;;19.40;91.40;;;;;;6197149;23;20487;-81
2022/07/10 10:47:09;;;;;;;2.20;2.10;;;19.60;90.50;;;;;;6127896;23;20448;-82
2022/07/10 10:49:58;;;;;;;3.43;1.90;;;19.60;90.40;;;;;;6196038;23;20437;-82
2022/07/10 10:52:26;;;;;;;2.70;2.50;;;19.80;90.30;;;;;;6195943;23;20390;-81
2022/07/10 10:55:08;;;;;;;2.57;2.37;;;19.50;90.00;;;;;;6196212;23;20440;-81
2022/07/10 10:57:39;;;;;;;2.40;2.00;;;19.40;90.50;;;;;;6194475;23;20821;-83
2022/07/10 11:00:08;;;;;;;2.07;1.97;;;19.60;90.40;;;;;;6193683;23;20391;-84
2022/07/10 11:02:37;;;;;;;2.60;2.30;;;19.60;90.20;;;;;;6191887;23;20641;-83
2022/07/10 11:05:43;;;;;;;3.30;2.37;;;19.80;90.30;;;;;;6191678;23;20972;-83
2022/07/10 11:08:11;;;;;;;2.43;2.30;;;20.00;90.20;;;;;;6188463;23;20806;-81
2022/07/10 11:10:39;;;;;;;2.00;1.90;;;20.20;90.00;;;;;;6191185;23;20443;-81
2022/07/10 11:13:07;;;;;;;4.00;3.00;;;20.00;90.00;;;;;;6190538;23;20417;-81
2022/07/10 11:15:36;;;;;;;3.20;2.60;;;19.70;90.40;;;;;;6190134;23;20940;-81
2022/07/10 11:18:08;;;;;;;3.63;2.57;;;19.50;91.10;;;;;;6189141;23;20506;-80
2022/07/10 11:20:36;;;;;;;2.10;2.00;;;19.90;91.50;;;;;;6190288;23;20412;-81
2022/07/10 11:23:54;;;;;;;2.20;2.00;;;20.30;89.60;;;;;;6189748;23;20414;-84
2022/07/10 11:26:29;;;;;;;2.30;2.13;;;20.80;88.30;;;;;;6146769;23;20420;-86
2022/07/10 11:28:58;;;;;;;2.00;1.90;;;21.00;86.70;;;;;;6192946;23;20877;-85
2022/07/10 11:31:27;;;;;;;2.37;2.17;;;21.60;88.70;;;;;;6193512;23;20416;-85
2022/07/10 11:33:56;;;;;;;2.10;2.00;;;22.20;83.50;;;;;;6192225;23;20420;-84
2022/07/10 11:36:25;;;;;;;2.80;1.80;;;22.10;80.40;;;;;;6190212;23;20417;-83
2022/07/10 11:38:59;;;;;;;4.00;1.93;;;22.00;79.70;;;;;;6192038;23;20414;-86
2022/07/10 11:41:27;;;;;;;1.97;1.50;;;21.80;79.00;;;;;;6198855;23;20791;-85
2022/07/10 11:43:55;;;;;;;2.13;1.50;;;21.80;76.30;;;;;;6194941;23;20430;-80
2022/07/10 11:46:24;;;;;;;1.50;1.20;;;21.90;76.70;;;;;;6187981;23;20463;-84
2022/07/10 11:48:53;;;;;;;1.97;1.83;;;21.80;75.60;;;;;;6188130;23;20420;-78
2022/07/10 11:51:23;;;;;;;2.10;1.70;;;21.50;75.90;;;;;;6192664;23;20453;-82
2022/07/10 11:53:57;;;;;;;2.00;1.83;;;21.40;77.40;;;;;;6189764;23;20435;-86
2022/07/10 11:56:25;;;;;;;1.30;1.20;;;21.80;77.30;;;;;;6189186;23;20412;-83
2022/07/10 11:58:58;;;;;;;1.67;1.30;;;22.00;75.80;;;;;;6188769;23;20802;-83
2022/07/10 12:01:25;;;;;;;1.23;1.13;;;22.50;75.10;;;;;;6187933;23;20409;-85
2022/07/10 12:03:57;;;;;;;1.40;1.30;;;23.00;72.60;;;;;;6189603;23;20428;-83
2022/07/10 12:06:24;;;;;;;1.30;1.07;;;23.50;70.30;;;;;;6189387;23;20410;-85
2022/07/10 12:08:51;;;;;;;2.43;1.37;;;23.60;69.70;;;;;;6188764;23;20932;-86
2022/07/10 12:11:20;;;;;;;1.67;1.53;;;23.40;68.30;;;;;;6190284;23;20446;-86
2022/07/10 12:13:48;;;;;;;3.33;1.50;;;23.00;68.90;;;;;;6193236;23;20440;-83
2022/07/10 12:16:16;;;;;;;2.67;1.33;;;22.90;68.80;;;;;;6193431;23;20410;-85
2022/07/10 12:18:44;;;;;;;2.40;1.53;;;23.30;68.30;;;;;;6193635;23;20422;-85
2022/07/10 12:21:12;;;;;;;1.27;1.07;;;23.30;65.60;;;;;;6191154;23;20409;-80
2022/07/10 12:23:41;;;;;;;1.63;1.10;;;23.40;65.80;;;;;;6190357;23;20480;-78
2022/07/10 12:26:09;;;;;;;1.37;1.27;;;23.70;65.00;;;;;;6191664;23;20956;-84
2022/07/10 12:28:58;;;;;;;3.40;2.00;;;24.00;63.90;;;;;;6194302;23;20663;-78
2022/07/10 12:31:29;;;;;;;1.50;1.40;;;23.90;61.60;;;;;;6191358;23;20775;-79
2022/07/10 12:34:01;;;;;;;1.50;1.40;;;24.00;62.30;;;;;;6193719;23;20430;-82
2022/07/10 12:36:41;;;;;;;2.40;1.10;;;24.30;62.80;;;;;;6192284;23;20406;-82
2022/07/10 12:39:08;;;;;;;1.73;1.17;;;24.80;62.70;;;;;;6190877;23;20398;-83
2022/07/10 12:41:35;;;;;;;1.27;1.20;;;24.70;58.00;;;;;;6192860;23;20414;-85
2022/07/10 12:44:02;;;;;;;2.03;1.87;;;24.10;58.00;;;;;;6198901;23;20422;-86
2022/07/10 12:46:30;;;;;;;5.07;3.20;;;23.80;59.50;;;;;;6198782;23;20469;-85
2022/07/10 12:49:05;;;;;;;1.57;1.00;;;24.20;60.00;;;;;;6202211;23;20410;-84
2022/07/10 12:51:33;;;;;;;2.60;2.50;;;24.60;59.60;;;;;;6200532;23;20564;-85
2022/07/10 12:54:00;;;;;;;3.37;1.70;;;24.70;57.90;;;;;;6190734;23;20431;-84
2022/07/10 12:56:35;;;;;;;1.03;1.00;;;24.60;58.00;;;;;;6193491;23;20410;-85